Time;durP1;ratioP1;P1;durP2;ratioP2;P2;SDS_P1;SDS_P2;PMS_P1;PMS_P2;Temp;Humidity;BMP_temperature;BMP_pressure;BME280_temperature;BME280_humidity;BME280_pressure;Samples;Min_cycle;Max_cycle;Signal;HPM_P1;HPM_P2
2023/04/21 00:02:06;;;;;;;17.88;13.70;;;9.70;99.90;;;;;;5041511;28;20040;-42
2023/04/21 00:04:32;;;;;;;17.25;13.10;;;9.70;99.90;;;;;;5042541;28;20031;-42
2023/04/21 00:07:00;;;;;;;18.40;13.68;;;9.70;99.90;;;;;;5041540;28;20033;-42
2023/04/21 00:09:26;;;;;;;19.55;14.30;;;9.60;99.90;;;;;;5041921;28;20032;-43
2023/04/21 00:11:52;;;;;;;22.20;14.98;;;9.60;99.90;;;;;;5041970;28;20094;-44
2023/04/21 00:14:17;;;;;;;20.35;15.13;;;9.60;99.90;;;;;;5042593;28;20033;-43
2023/04/21 00:16:43;;;;;;;21.52;15.93;;;9.60;99.90;;;;;;5041919;28;20464;-43
2023/04/21 00:19:08;;;;;;;22.48;15.90;;;9.60;99.90;;;;;;5042350;28;20025;-43
2023/04/21 00:21:36;;;;;;;22.63;16.77;;;9.60;99.90;;;;;;5042010;28;20039;-45
2023/04/21 00:24:02;;;;;;;22.25;16.85;;;9.60;99.90;;;;;;5040563;28;20036;-43
2023/04/21 00:26:28;;;;;;;21.55;16.23;;;9.50;99.90;;;;;;5042348;28;20032;-42
2023/04/21 00:28:53;;;;;;;22.90;17.15;;;9.50;99.90;;;;;;5042066;28;20036;-43
2023/04/21 00:31:19;;;;;;;21.52;16.98;;;9.50;99.90;;;;;;5041799;28;20032;-44
2023/04/21 00:33:44;;;;;;;25.13;17.48;;;9.50;99.90;;;;;;5042170;28;20029;-42
2023/04/21 00:36:10;;;;;;;22.33;16.90;;;9.50;99.90;;;;;;5041006;28;20024;-42
2023/04/21 00:38:35;;;;;;;21.55;15.90;;;9.50;99.90;;;;;;5041404;28;20025;-42
2023/04/21 00:41:01;;;;;;;23.92;15.65;;;9.50;99.90;;;;;;5041051;28;20690;-43
2023/04/21 00:43:33;;;;;;;24.88;16.52;;;9.50;99.90;;;;;;5041035;28;20032;-42
2023/04/21 00:46:01;;;;;;;22.00;16.10;;;9.50;99.90;;;;;;5041065;28;20051;-44
2023/04/21 00:48:30;;;;;;;24.27;16.52;;;9.50;99.90;;;;;;5039868;28;20032;-44
2023/04/21 00:50:55;;;;;;;20.85;15.82;;;9.50;99.90;;;;;;5040226;28;20060;-43
2023/04/21 00:53:21;;;;;;;22.80;14.88;;;9.50;99.90;;;;;;5039822;28;20025;-43
2023/04/21 00:55:47;;;;;;;24.52;16.20;;;9.50;99.90;;;;;;5041155;28;20043;-43
2023/04/21 00:58:12;;;;;;;22.77;15.93;;;9.40;99.90;;;;;;5041175;28;20037;-43
2023/04/21 01:00:38;;;;;;;23.48;15.85;;;9.40;99.90;;;;;;5042287;28;20829;-43
2023/04/21 01:03:05;;;;;;;20.30;14.63;;;9.50;99.90;;;;;;5041329;28;20036;-43
2023/04/21 01:05:31;;;;;;;17.10;12.95;;;9.40;99.90;;;;;;5040749;28;20547;-44
2023/04/21 01:07:57;;;;;;;22.80;16.05;;;9.40;99.90;;;;;;5041614;28;20031;-43
2023/04/21 01:10:22;;;;;;;24.58;17.08;;;9.40;99.90;;;;;;5041587;28;20060;-42
2023/04/21 01:12:48;;;;;;;21.13;15.65;;;9.40;99.90;;;;;;5040307;28;20547;-44
2023/04/21 01:15:15;;;;;;;22.98;16.25;;;9.40;99.90;;;;;;5041717;28;20444;-44
2023/04/21 01:17:42;;;;;;;18.67;14.05;;;9.40;99.90;;;;;;5040314;28;20798;-43
2023/04/21 01:20:10;;;;;;;20.33;15.48;;;9.40;99.90;;;;;;5040309;28;20036;-42
2023/04/21 01:22:40;;;;;;;21.15;14.93;;;9.30;99.90;;;;;;5040118;28;20021;-43
2023/04/21 01:25:07;;;;;;;23.23;16.20;;;9.30;99.90;;;;;;5040533;28;20630;-43
2023/04/21 01:27:33;;;;;;;21.63;15.85;;;9.30;99.90;;;;;;5041261;28;20029;-42
2023/04/21 01:29:59;;;;;;;21.42;16.00;;;9.30;99.90;;;;;;5040545;28;20098;-43
2023/04/21 01:32:28;;;;;;;22.10;15.95;;;9.30;99.90;;;;;;5039458;28;20119;-43
2023/04/21 01:34:55;;;;;;;21.17;15.65;;;9.30;99.90;;;;;;5041250;28;20025;-43
2023/04/21 01:37:25;;;;;;;22.50;16.13;;;9.30;99.90;;;;;;5040724;28;20071;-43
2023/04/21 01:39:54;;;;;;;20.25;15.15;;;9.30;99.90;;;;;;5040025;28;20040;-43
2023/04/21 01:42:21;;;;;;;24.52;18.25;;;9.30;99.90;;;;;;5042106;28;20059;-43
2023/04/21 01:44:48;;;;;;;23.02;17.23;;;9.30;99.90;;;;;;5041154;28;20083;-41
2023/04/21 01:47:14;;;;;;;23.83;17.50;;;9.30;99.90;;;;;;5040821;28;20780;-43
2023/04/21 01:49:40;;;;;;;23.27;16.90;;;9.40;99.90;;;;;;5040783;28;20083;-42
2023/04/21 01:52:06;;;;;;;23.00;16.67;;;9.40;99.90;;;;;;5040522;28;20037;-43
2023/04/21 01:54:32;;;;;;;24.65;17.67;;;9.30;99.90;;;;;;5039911;28;20032;-42
2023/04/21 01:56:57;;;;;;;22.15;16.58;;;9.30;99.90;;;;;;5040910;28;20025;-42
2023/04/21 01:59:23;;;;;;;24.58;17.73;;;9.30;99.90;;;;;;5039254;28;20365;-43
2023/04/21 02:01:51;;;;;;;21.63;16.13;;;9.40;99.90;;;;;;5039252;28;20065;-33
2023/04/21 02:04:17;;;;;;;20.45;15.80;;;9.40;99.90;;;;;;5042834;28;20136;-42
2023/04/21 02:06:42;;;;;;;20.13;15.45;;;9.40;99.90;;;;;;5045085;28;20021;-44
2023/04/21 02:09:08;;;;;;;20.45;15.85;;;9.40;99.90;;;;;;5043955;28;20055;-43
2023/04/21 02:11:33;;;;;;;21.45;16.17;;;9.40;99.90;;;;;;5044788;28;20475;-43
2023/04/21 02:13:59;;;;;;;22.05;15.55;;;9.40;99.90;;;;;;5044236;28;20929;-43
2023/04/21 02:16:25;;;;;;;20.52;15.60;;;9.50;99.90;;;;;;5043648;28;20043;-42
2023/04/21 02:18:55;;;;;;;21.40;15.60;;;9.50;99.90;;;;;;5045190;28;20477;-42
2023/04/21 02:21:21;;;;;;;19.75;14.88;;;9.50;99.90;;;;;;5044371;28;20416;-42
2023/04/21 02:23:50;;;;;;;20.42;15.13;;;9.50;99.90;;;;;;5043991;28;20031;-44
2023/04/21 02:26:15;;;;;;;19.25;15.18;;;9.50;99.90;;;;;;5044474;28;20112;-41
2023/04/21 02:28:41;;;;;;;20.45;16.13;;;9.40;99.90;;;;;;5043957;28;20029;-43
2023/04/21 02:31:07;;;;;;;20.42;15.63;;;9.50;99.90;;;;;;5043943;28;20122;-43
2023/04/21 02:33:32;;;;;;;19.17;15.45;;;9.40;99.90;;;;;;5044308;28;20523;-43
2023/04/21 02:35:58;;;;;;;21.80;17.00;;;9.50;99.90;;;;;;5043196;28;20033;-43
2023/04/21 02:38:24;;;;;;;18.90;15.10;;;9.40;99.90;;;;;;5044511;28;20044;-43
2023/04/21 02:40:49;;;;;;;18.25;14.88;;;9.40;99.90;;;;;;5043252;28;20028;-43
2023/04/21 02:43:16;;;;;;;18.38;14.88;;;9.40;99.90;;;;;;5043848;28;20086;-42
2023/04/21 02:45:41;;;;;;;20.83;16.27;;;9.40;99.90;;;;;;5043727;28;20025;-43
2023/04/21 02:48:07;;;;;;;20.38;16.40;;;9.40;99.90;;;;;;5044352;28;20485;-43
2023/04/21 02:50:33;;;;;;;20.33;16.33;;;9.40;99.90;;;;;;5042847;28;20587;-42
2023/04/21 02:53:01;;;;;;;18.27;15.02;;;9.40;99.90;;;;;;5043774;28;20495;-42
2023/04/21 02:55:26;;;;;;;18.65;14.98;;;9.40;99.90;;;;;;5043611;28;20036;-43
2023/04/21 02:57:52;;;;;;;19.65;14.85;;;9.40;99.90;;;;;;5043500;28;20029;-43
2023/04/21 03:00:19;;;;;;;18.73;15.23;;;9.40;99.90;;;;;;5044651;28;20056;-43
2023/04/21 03:02:45;;;;;;;21.55;17.05;;;9.40;99.90;;;;;;5044513;28;20025;-43
2023/04/21 03:05:11;;;;;;;20.77;16.02;;;9.40;99.90;;;;;;5043975;28;20031;-42
2023/04/21 03:07:39;;;;;;;21.77;17.90;;;9.40;99.90;;;;;;5042729;28;20036;-43
2023/04/21 03:10:06;;;;;;;21.85;17.02;;;9.40;99.90;;;;;;5042965;28;20033;-44
2023/04/21 03:12:31;;;;;;;21.10;16.65;;;9.40;99.90;;;;;;5042446;28;20086;-42
2023/04/21 03:14:57;;;;;;;20.88;16.48;;;9.40;99.90;;;;;;5042073;28;20544;-42
2023/04/21 03:17:23;;;;;;;20.75;16.35;;;9.40;99.90;;;;;;5042641;28;20796;-43
2023/04/21 03:19:49;;;;;;;21.02;16.70;;;9.50;99.90;;;;;;5042988;28;20023;-43
2023/04/21 03:22:14;;;;;;;19.38;15.55;;;9.40;99.90;;;;;;5042730;28;20468;-42
2023/04/21 03:24:40;;;;;;;21.90;17.27;;;9.50;99.90;;;;;;5043067;28;20126;-43
2023/04/21 03:27:06;;;;;;;21.15;16.92;;;9.50;99.90;;;;;;5043619;28;20025;-43
2023/04/21 03:29:31;;;;;;;19.38;15.90;;;9.50;99.90;;;;;;5043020;28;20048;-44
2023/04/21 03:31:57;;;;;;;17.98;15.05;;;9.50;99.90;;;;;;5042845;28;20024;-42
2023/04/21 03:34:22;;;;;;;24.30;18.73;;;9.50;99.90;;;;;;5043287;28;20029;-43
2023/04/21 03:36:48;;;;;;;22.95;18.20;;;9.50;99.90;;;;;;5043303;28;20056;-43
2023/04/21 03:39:13;;;;;;;23.60;17.95;;;9.50;99.90;;;;;;5043014;28;20079;-43
2023/04/21 03:41:39;;;;;;;23.08;18.27;;;9.40;99.90;;;;;;5043721;28;20059;-43
2023/04/21 03:44:05;;;;;;;24.33;18.83;;;9.40;99.90;;;;;;5043338;28;20020;-43
2023/04/21 03:46:30;;;;;;;25.20;18.73;;;9.40;99.90;;;;;;5043056;28;20484;-42
2023/04/21 03:48:56;;;;;;;21.73;17.98;;;9.40;99.90;;;;;;5042936;28;20103;-44
2023/04/21 03:51:21;;;;;;;23.60;19.02;;;9.50;99.90;;;;;;5043284;28;20087;-42
2023/04/21 03:53:47;;;;;;;22.23;18.02;;;9.40;99.90;;;;;;5042180;28;20017;-43
2023/04/21 03:56:12;;;;;;;25.52;19.55;;;9.50;99.90;;;;;;5043701;28;20037;-43
2023/04/21 03:58:38;;;;;;;24.55;19.08;;;9.40;99.90;;;;;;5043280;28;20035;-43
2023/04/21 04:01:05;;;;;;;24.40;18.92;;;9.50;99.90;;;;;;5042589;28;20037;-42
2023/04/21 04:03:31;;;;;;;23.35;18.23;;;9.50;99.90;;;;;;5042524;28;20473;-43
2023/04/21 04:05:57;;;;;;;24.27;18.85;;;9.50;99.90;;;;;;5042311;28;20036;-43
2023/04/21 04:08:22;;;;;;;24.77;19.17;;;9.50;99.90;;;;;;5041901;28;20108;-43
2023/04/21 04:10:48;;;;;;;26.27;20.55;;;9.50;99.90;;;;;;5042484;28;20132;-44
2023/04/21 04:13:16;;;;;;;28.27;21.92;;;9.50;99.90;;;;;;5042645;28;20229;-43
2023/04/21 04:15:41;;;;;;;27.55;21.90;;;9.50;99.90;;;;;;5041217;28;20143;-43
2023/04/21 04:18:07;;;;;;;28.13;21.10;;;9.50;99.90;;;;;;5041427;28;20108;-43
2023/04/21 04:20:32;;;;;;;24.08;20.08;;;9.50;99.90;;;;;;5040917;28;20024;-42
2023/04/21 04:22:58;;;;;;;26.65;21.20;;;9.50;99.90;;;;;;5041141;28;20024;-43
2023/04/21 04:25:24;;;;;;;25.58;21.17;;;9.50;99.90;;;;;;5040999;28;20140;-43
2023/04/21 04:27:49;;;;;;;25.52;19.90;;;9.50;99.90;;;;;;5042032;28;20060;-43
2023/04/21 04:30:15;;;;;;;28.92;21.05;;;9.50;99.90;;;;;;5041218;28;20187;-43
2023/04/21 04:32:41;;;;;;;26.63;21.27;;;9.50;99.90;;;;;;5042013;28;20385;-42
2023/04/21 04:35:08;;;;;;;30.02;22.67;;;9.50;99.90;;;;;;5040939;28;20028;-43
2023/04/21 04:37:35;;;;;;;30.20;23.90;;;9.50;99.90;;;;;;5041814;28;20045;-43
2023/04/21 04:40:04;;;;;;;28.90;22.55;;;9.50;99.90;;;;;;5041166;28;20017;-42
2023/04/21 04:42:31;;;;;;;31.08;23.85;;;9.50;99.90;;;;;;5041359;28;20028;-44
2023/04/21 04:44:58;;;;;;;28.33;21.77;;;9.60;99.90;;;;;;5042061;28;20032;-43
2023/04/21 04:47:23;;;;;;;24.83;20.60;;;9.60;99.90;;;;;;5041686;28;20382;-44
2023/04/21 04:49:49;;;;;;;27.90;22.17;;;9.50;99.90;;;;;;5040831;28;20516;-43
2023/04/21 04:52:15;;;;;;;29.00;23.45;;;9.60;99.90;;;;;;5041892;28;20083;-42
2023/04/21 04:54:40;;;;;;;31.58;25.27;;;9.60;99.90;;;;;;5041754;28;20035;-43
2023/04/21 04:57:06;;;;;;;27.58;23.02;;;9.60;99.90;;;;;;5041165;28;20086;-43
2023/04/21 04:59:31;;;;;;;29.02;24.08;;;9.60;99.90;;;;;;5040378;28;20052;-43
2023/04/21 05:01:57;;;;;;;27.85;22.73;;;9.60;99.90;;;;;;5041509;28;20017;-43
2023/04/21 05:04:22;;;;;;;28.83;23.05;;;9.60;99.90;;;;;;5041559;28;20760;-43
2023/04/21 05:06:48;;;;;;;30.92;23.88;;;9.60;99.90;;;;;;5040788;28;20445;-44
2023/04/21 05:09:15;;;;;;;27.98;22.90;;;9.60;99.90;;;;;;5041449;28;20551;-43
2023/04/21 05:11:41;;;;;;;31.30;23.25;;;9.60;99.90;;;;;;5040122;28;20114;-43
2023/04/21 05:14:06;;;;;;;30.10;22.40;;;9.60;99.90;;;;;;5041606;28;20021;-43
2023/04/21 05:16:33;;;;;;;28.15;21.85;;;9.70;99.90;;;;;;5041023;28;20537;-43
2023/04/21 05:19:00;;;;;;;31.05;23.70;;;9.70;99.90;;;;;;5040551;28;20021;-43
2023/04/21 05:21:27;;;;;;;29.48;23.48;;;9.70;99.90;;;;;;5040816;28;20021;-42
2023/04/21 05:23:56;;;;;;;28.85;21.08;;;9.70;99.90;;;;;;5041237;28;20108;-43
2023/04/21 05:26:22;;;;;;;25.50;20.65;;;9.80;99.90;;;;;;5039571;28;20040;-43
2023/04/21 05:28:48;;;;;;;27.90;21.70;;;9.80;99.90;;;;;;5040453;28;20064;-43
2023/04/21 05:31:14;;;;;;;29.77;23.70;;;9.80;99.90;;;;;;5040078;28;20152;-42
2023/04/21 05:33:39;;;;;;;31.17;24.08;;;9.80;99.90;;;;;;5040246;28;20024;-42
2023/04/21 05:36:09;;;;;;;29.45;23.15;;;9.80;99.90;;;;;;5041073;28;20029;-43
2023/04/21 05:38:35;;;;;;;28.98;22.75;;;9.80;99.90;;;;;;5039340;28;20117;-43
2023/04/21 05:41:01;;;;;;;28.38;22.27;;;9.90;99.90;;;;;;5040563;28;20393;-42
2023/04/21 05:43:33;;;;;;;27.38;21.85;;;9.90;99.90;;;;;;5033647;28;20540;-43
2023/04/21 05:46:02;;;;;;;25.00;21.05;;;9.90;99.90;;;;;;5038411;28;20137;-43
2023/04/21 05:48:28;;;;;;;28.58;22.45;;;9.90;99.90;;;;;;5037974;28;20739;-43
2023/04/21 05:50:54;;;;;;;27.70;22.25;;;9.90;99.90;;;;;;5039837;28;20057;-43
2023/04/21 05:53:22;;;;;;;28.65;22.17;;;9.90;99.90;;;;;;5038736;28;20711;-44
2023/04/21 05:55:47;;;;;;;27.75;21.55;;;10.00;99.90;;;;;;5039364;28;20651;-43
2023/04/21 05:58:13;;;;;;;26.65;20.30;;;10.00;99.90;;;;;;5040271;28;20032;-43
2023/04/21 06:00:39;;;;;;;26.13;21.50;;;10.00;99.90;;;;;;5039171;28;20029;-44
2023/04/21 06:03:05;;;;;;;26.38;20.80;;;10.00;99.90;;;;;;5039521;28;20079;-41
2023/04/21 06:05:31;;;;;;;30.60;24.17;;;10.00;99.90;;;;;;5040412;28;20374;-45
2023/04/21 06:07:57;;;;;;;25.83;20.92;;;10.00;99.90;;;;;;5039265;28;20032;-43
2023/04/21 06:10:22;;;;;;;26.80;21.45;;;10.10;99.90;;;;;;5040187;28;20106;-42
2023/04/21 06:12:48;;;;;;;28.95;21.55;;;10.10;99.90;;;;;;5040083;28;20103;-40
2023/04/21 06:15:13;;;;;;;25.50;20.55;;;10.20;99.90;;;;;;5039888;28;20025;-43
2023/04/21 06:17:39;;;;;;;25.02;21.35;;;10.20;99.90;;;;;;5039961;28;20694;-43
2023/04/21 06:20:06;;;;;;;26.17;20.92;;;10.20;99.90;;;;;;5040516;28;20032;-43
2023/04/21 06:22:32;;;;;;;28.00;21.88;;;10.20;99.90;;;;;;5038420;28;20035;-43
2023/04/21 06:24:58;;;;;;;27.10;20.55;;;10.30;99.90;;;;;;5039816;28;20033;-43
2023/04/21 06:27:23;;;;;;;25.63;21.13;;;10.30;99.90;;;;;;5039472;28;20115;-42
2023/04/21 06:29:53;;;;;;;26.90;21.02;;;10.30;99.90;;;;;;5038880;28;20115;-43
2023/04/21 06:32:19;;;;;;;26.85;20.58;;;10.40;99.90;;;;;;5039721;28;20141;-44
2023/04/21 06:34:44;;;;;;;24.25;18.88;;;10.40;99.90;;;;;;5038610;28;20427;-43
2023/04/21 06:37:10;;;;;;;28.45;22.92;;;10.40;99.90;;;;;;5039460;28;20048;-44
2023/04/21 06:39:35;;;;;;;28.95;21.92;;;10.50;99.90;;;;;;5039363;28;20383;-43
2023/04/21 06:42:01;;;;;;;32.33;24.23;;;10.50;99.90;;;;;;5038281;28;20764;-42
2023/04/21 06:44:28;;;;;;;28.75;22.70;;;10.60;99.90;;;;;;5039260;28;20040;-42
2023/04/21 06:46:53;;;;;;;26.63;21.85;;;10.70;99.90;;;;;;5039871;28;20110;-44
2023/04/21 06:49:21;;;;;;;26.85;21.15;;;10.80;99.90;;;;;;5039266;28;20041;-43
2023/04/21 06:51:48;;;;;;;28.77;23.17;;;10.90;99.90;;;;;;5043185;28;20148;-43
2023/04/21 06:54:13;;;;;;;28.15;21.13;;;10.90;99.90;;;;;;5043759;28;20035;-42
2023/04/21 06:56:40;;;;;;;26.27;21.20;;;10.90;99.90;;;;;;5042574;28;20378;-42
2023/04/21 06:59:06;;;;;;;25.73;22.05;;;10.90;99.90;;;;;;5043054;28;20555;-42
2023/04/21 07:01:32;;;;;;;31.58;23.80;;;10.90;99.90;;;;;;5043064;28;20029;-43
2023/04/21 07:03:57;;;;;;;26.17;20.92;;;11.00;99.90;;;;;;5042302;28;20102;-45
2023/04/21 07:06:23;;;;;;;29.73;23.10;;;11.00;99.90;;;;;;5043370;28;20116;-44
2023/04/21 07:08:48;;;;;;;29.05;22.50;;;11.00;99.90;;;;;;5042715;28;20032;-44
2023/04/21 07:11:14;;;;;;;25.63;21.20;;;10.90;99.90;;;;;;5042837;28;20083;-44
2023/04/21 07:13:39;;;;;;;26.92;21.17;;;11.00;99.90;;;;;;5043640;28;20108;-43
2023/04/21 07:16:05;;;;;;;25.90;20.27;;;11.00;99.90;;;;;;5042723;28;20140;-44
2023/04/21 07:18:31;;;;;;;26.33;20.90;;;11.10;99.90;;;;;;5042081;28;20037;-44
2023/04/21 07:20:57;;;;;;;30.63;22.67;;;11.10;99.90;;;;;;5043116;28;20029;-42
2023/04/21 07:23:22;;;;;;;28.10;21.88;;;11.20;99.90;;;;;;5043125;28;20785;-43
2023/04/21 07:25:48;;;;;;;25.10;20.50;;;11.20;99.90;;;;;;5042664;28;20025;-43
2023/04/21 07:28:14;;;;;;;25.55;20.48;;;11.30;99.90;;;;;;5043432;28;20037;-42
2023/04/21 07:30:40;;;;;;;26.63;21.17;;;11.30;99.90;;;;;;5042524;28;20036;-43
2023/04/21 07:33:06;;;;;;;26.63;20.95;;;11.40;99.90;;;;;;5040963;28;20450;-43
2023/04/21 07:35:32;;;;;;;27.20;21.35;;;11.40;99.90;;;;;;5042560;28;20198;-44
2023/04/21 07:37:57;;;;;;;27.17;22.15;;;11.50;99.90;;;;;;5042151;28;20028;-44
2023/04/21 07:40:26;;;;;;;29.38;22.20;;;11.60;99.90;;;;;;5042702;28;20033;-44
2023/04/21 07:42:51;;;;;;;27.50;21.30;;;11.60;99.90;;;;;;5030848;28;20024;-44
2023/04/21 07:45:17;;;;;;;26.98;21.55;;;11.60;99.90;;;;;;5041808;28;20658;-44
2023/04/21 07:47:42;;;;;;;27.60;21.70;;;11.70;99.90;;;;;;5041545;28;20117;-44
2023/04/21 07:50:11;;;;;;;26.88;22.58;;;11.80;99.90;;;;;;5041772;28;20051;-45
2023/04/21 07:52:37;;;;;;;27.58;22.48;;;11.80;99.90;;;;;;5040378;28;20017;-43
2023/04/21 07:55:02;;;;;;;25.10;20.85;;;11.80;99.90;;;;;;5042123;28;20035;-43
2023/04/21 07:57:30;;;;;;;28.02;23.30;;;11.90;99.90;;;;;;5039590;28;20021;-43
2023/04/21 07:59:56;;;;;;;27.10;21.80;;;11.90;99.90;;;;;;5042607;28;20083;-43
2023/04/21 08:02:24;;;;;;;27.55;22.30;;;12.00;99.90;;;;;;5041518;28;20033;-44
2023/04/21 08:04:50;;;;;;;29.27;23.48;;;12.10;99.90;;;;;;5041356;28;20052;-43
2023/04/21 08:07:18;;;;;;;31.77;23.10;;;12.20;99.90;;;;;;5042378;28;20013;-43
2023/04/21 08:09:44;;;;;;;22.80;19.80;;;12.30;99.90;;;;;;5042086;28;20141;-44
2023/04/21 08:12:10;;;;;;;26.13;22.58;;;12.40;99.90;;;;;;5041879;28;20029;-43
2023/04/21 08:14:35;;;;;;;28.02;22.70;;;12.50;99.90;;;;;;5041472;28;20063;-44
2023/04/21 08:17:01;;;;;;;26.85;21.58;;;12.60;99.90;;;;;;5041620;28;20377;-43
2023/04/21 08:19:26;;;;;;;25.17;20.13;;;12.60;99.90;;;;;;5041937;28;20025;-44
2023/04/21 08:21:52;;;;;;;25.55;21.38;;;12.70;99.90;;;;;;5041197;28;20107;-44
2023/04/21 08:24:17;;;;;;;21.60;17.92;;;12.80;99.90;;;;;;5041760;28;20114;-44
2023/04/21 08:26:43;;;;;;;25.55;21.98;;;12.90;99.90;;;;;;5041707;28;20044;-43
2023/04/21 08:29:09;;;;;;;23.20;20.25;;;13.10;99.90;;;;;;5041604;28;20017;-43
2023/04/21 08:31:35;;;;;;;28.05;22.38;;;13.10;99.90;;;;;;5041629;28;20048;-44
2023/04/21 08:34:01;;;;;;;26.77;22.45;;;13.20;99.90;;;;;;5040425;28;20049;-44
2023/04/21 08:36:27;;;;;;;25.65;21.65;;;13.20;99.90;;;;;;5040828;28;20391;-43
2023/04/21 08:38:52;;;;;;;26.73;22.58;;;13.20;99.90;;;;;;5041591;28;20496;-44
2023/04/21 08:41:19;;;;;;;26.88;23.08;;;13.20;99.90;;;;;;5041818;28;20024;-43
2023/04/21 08:43:44;;;;;;;27.10;22.50;;;13.10;99.90;;;;;;5041451;28;20056;-43
2023/04/21 08:46:11;;;;;;;24.48;20.90;;;13.20;99.90;;;;;;5041073;28;20108;-43
2023/04/21 08:48:37;;;;;;;25.42;20.88;;;13.20;99.90;;;;;;5040771;28;20025;-43
2023/04/21 08:51:10;;;;;;;26.40;20.98;;;13.30;99.90;;;;;;5041187;28;20800;-43
2023/04/21 08:53:36;;;;;;;26.20;21.83;;;13.40;99.90;;;;;;5040529;28;20547;-44
2023/04/21 08:56:23;;;;;;;26.85;21.38;;;13.50;99.90;;;;;;5040204;28;20040;-44
2023/04/21 08:58:48;;;;;;;26.00;19.27;;;13.60;99.90;;;;;;5040296;28;20084;-43
2023/04/21 09:01:20;;;;;;;24.98;20.58;;;13.70;99.90;;;;;;5041607;28;20227;-43
2023/04/21 09:03:45;;;;;;;22.57;20.13;;;13.80;99.90;;;;;;5040785;28;20025;-43
2023/04/21 09:06:11;;;;;;;24.80;20.52;;;13.90;99.90;;;;;;5040671;28;20272;-43
2023/04/21 09:08:41;;;;;;;24.60;20.02;;;13.90;99.90;;;;;;5040472;28;20123;-42
2023/04/21 09:11:06;;;;;;;25.17;21.30;;;13.90;99.90;;;;;;5040386;28;20446;-43
2023/04/21 09:13:34;;;;;;;25.80;21.33;;;14.10;99.90;;;;;;5039826;28;20655;-44
2023/04/21 09:16:02;;;;;;;25.10;21.00;;;14.10;99.90;;;;;;5029844;28;20037;-43
2023/04/21 09:18:35;;;;;;;25.52;21.73;;;14.10;99.90;;;;;;5040103;28;20021;-44
2023/04/21 09:21:09;;;;;;;23.48;20.60;;;14.10;99.90;;;;;;5041019;28;20045;-43
2023/04/21 09:23:49;;;;;;;25.00;21.38;;;14.10;99.90;;;;;;5040997;28;20033;-43
2023/04/21 09:26:16;;;;;;;25.05;20.52;;;14.10;99.90;;;;;;5040972;28;20704;-43
2023/04/21 09:28:43;;;;;;;26.67;21.90;;;14.10;99.90;;;;;;5040774;28;20025;-44
2023/04/21 09:31:18;;;;;;;26.02;22.55;;;14.10;99.90;;;;;;5040060;28;20025;-42
2023/04/21 09:33:53;;;;;;;26.25;21.13;;;14.10;99.90;;;;;;5040391;28;20060;-44
2023/04/21 09:36:20;;;;;;;26.23;21.73;;;14.20;99.90;;;;;;5037756;28;20017;-43
2023/04/21 09:38:59;;;;;;;26.42;22.02;;;14.20;99.90;;;;;;5040045;28;20057;-44
2023/04/21 09:41:24;;;;;;;26.60;22.30;;;14.30;99.90;;;;;;5037772;28;20702;-43
2023/04/21 09:43:50;;;;;;;25.30;21.13;;;14.30;99.90;;;;;;5040751;28;20029;-44
2023/04/21 09:46:17;;;;;;;25.23;21.80;;;14.30;99.90;;;;;;5039963;28;20021;-43
2023/04/21 09:48:44;;;;;;;25.85;22.55;;;14.30;99.90;;;;;;5040893;28;20144;-44
2023/04/21 09:51:15;;;;;;;26.23;21.17;;;14.20;99.90;;;;;;5040591;28;20107;-43
2023/04/21 09:53:42;;;;;;;25.73;21.95;;;14.30;99.90;;;;;;5040078;28;20025;-43
2023/04/21 09:56:11;;;;;;;25.52;21.73;;;14.30;99.90;;;;;;5040137;28;20740;-44
2023/04/21 09:58:45;;;;;;;30.17;22.75;;;14.40;99.90;;;;;;5041093;28;20108;-43
2023/04/21 10:01:12;;;;;;;27.75;23.48;;;14.40;99.90;;;;;;5039762;28;20021;-44
2023/04/21 10:03:39;;;;;;;26.67;22.20;;;14.50;99.90;;;;;;5039835;28;20124;-44
2023/04/21 10:06:06;;;;;;;26.17;22.02;;;14.50;99.90;;;;;;5039415;28;20024;-44
2023/04/21 10:08:32;;;;;;;25.25;22.42;;;14.50;99.90;;;;;;5040063;28;20021;-42
2023/04/21 10:11:07;;;;;;;24.58;21.85;;;14.50;99.90;;;;;;5039883;28;20043;-44
2023/04/21 10:13:34;;;;;;;28.92;23.98;;;14.50;99.90;;;;;;5039256;28;20029;-44
2023/04/21 10:16:08;;;;;;;25.83;23.05;;;14.60;99.90;;;;;;5039543;28;20028;-44
2023/04/21 10:18:41;;;;;;;26.95;22.98;;;14.70;99.90;;;;;;5040418;28;20052;-44
2023/04/21 10:21:09;;;;;;;26.65;22.95;;;14.70;99.90;;;;;;5039578;28;20037;-44
2023/04/21 10:23:45;;;;;;;26.88;23.13;;;14.70;99.90;;;;;;5039828;28;20021;-43
2023/04/21 10:26:21;;;;;;;24.20;21.10;;;14.70;99.90;;;;;;5043235;28;20071;-43
2023/04/21 10:29:00;;;;;;;24.25;20.67;;;14.80;99.90;;;;;;5043445;28;20376;-43
2023/04/21 10:31:52;;;;;;;27.67;22.27;;;14.90;99.90;;;;;;5043989;28;20451;-44
2023/04/21 10:34:29;;;;;;;26.23;21.83;;;15.00;99.90;;;;;;5044131;28;20029;-42
2023/04/21 10:36:54;;;;;;;22.88;20.13;;;15.20;99.90;;;;;;5043523;28;20113;-44
2023/04/21 10:39:37;;;;;;;22.33;18.75;;;15.30;99.90;;;;;;5044253;28;20359;-44
2023/04/21 10:42:11;;;;;;;22.63;19.98;;;15.50;99.90;;;;;;5043266;28;20029;-44
2023/04/21 10:44:41;;;;;;;21.33;17.90;;;15.60;99.90;;;;;;5042480;28;20114;-45
2023/04/21 10:47:07;;;;;;;24.15;19.77;;;15.80;99.90;;;;;;5043224;28;20129;-43
2023/04/21 10:49:38;;;;;;;21.02;18.75;;;15.90;99.90;;;;;;5042563;28;20057;-44
2023/04/21 10:52:08;;;;;;;20.92;18.63;;;16.00;99.90;;;;;;5043580;28;20119;-44
2023/04/21 10:55:03;;;;;;;23.02;20.25;;;16.00;99.90;;;;;;5043971;28;20029;-44
2023/04/21 10:57:32;;;;;;;23.50;20.33;;;16.00;99.90;;;;;;5043675;28;20745;-43
2023/04/21 10:59:58;;;;;;;22.13;19.75;;;15.80;99.90;;;;;;5043398;28;20658;-43
2023/04/21 11:02:24;;;;;;;23.73;20.20;;;15.70;99.90;;;;;;5042480;28;20055;-43
2023/04/21 11:04:51;;;;;;;22.10;19.35;;;15.70;99.90;;;;;;5043725;28;20024;-44
2023/04/21 11:07:22;;;;;;;21.38;17.98;;;15.70;99.90;;;;;;5044067;28;20036;-44
2023/04/21 11:09:55;;;;;;;19.73;17.63;;;15.80;99.90;;;;;;5031969;28;20087;-44
2023/04/21 11:12:21;;;;;;;20.52;18.05;;;15.80;99.90;;;;;;5042889;28;20176;-43
2023/04/21 11:14:50;;;;;;;21.85;19.33;;;15.70;99.90;;;;;;5042504;28;20476;-44
2023/04/21 11:17:21;;;;;;;21.45;19.00;;;15.60;99.90;;;;;;5041755;28;20040;-44
2023/04/21 11:19:54;;;;;;;25.73;20.43;;;15.60;99.90;;;;;;5042043;28;20143;-44
2023/04/21 11:22:21;;;;;;;22.30;18.48;;;15.50;99.90;;;;;;5043217;28;20026;-44
2023/04/21 11:24:50;;;;;;;20.63;17.75;;;15.40;99.90;;;;;;5041472;28;20032;-44
2023/04/21 11:27:16;;;;;;;22.85;19.25;;;15.60;99.90;;;;;;5042973;28;20528;-45
2023/04/21 11:29:44;;;;;;;22.55;19.65;;;15.70;99.90;;;;;;5042731;28;20025;-44
2023/04/21 11:32:10;;;;;;;24.88;19.75;;;15.90;99.90;;;;;;5042027;28;20396;-43
2023/04/21 11:34:37;;;;;;;22.50;18.75;;;16.10;99.90;;;;;;5042891;28;20025;-44
2023/04/21 11:37:05;;;;;;;23.73;20.02;;;16.20;99.90;;;;;;5040951;28;20754;-43
2023/04/21 11:39:34;;;;;;;21.77;17.80;;;16.30;99.90;;;;;;5042000;28;20663;-44
2023/04/21 11:42:03;;;;;;;23.25;18.75;;;16.50;99.90;;;;;;5042889;28;20059;-43
2023/04/21 11:44:40;;;;;;;19.60;17.48;;;16.60;99.90;;;;;;5042678;28;20086;-44
2023/04/21 11:47:14;;;;;;;20.17;17.48;;;16.60;99.90;;;;;;5042241;28;20167;-44
2023/04/21 11:49:53;;;;;;;23.25;19.17;;;16.70;99.90;;;;;;5041894;28;20033;-45
2023/04/21 11:52:36;;;;;;;24.75;19.77;;;16.80;99.90;;;;;;5042243;28;20036;-43
2023/04/21 11:55:03;;;;;;;;;;;16.70;99.90;;;;;;5043220;28;20107;-44
2023/04/21 11:57:31;;;;;;;59.38;27.90;;;16.60;99.90;;;;;;5042339;28;19988;-43
2023/04/21 12:00:01;;;;;;;79.10;28.88;;;16.60;99.90;;;;;;5040310;28;20021;-44
2023/04/21 12:02:28;;;;;;;27.45;19.65;;;16.50;99.90;;;;;;5042400;28;20029;-44
2023/04/21 12:05:04;;;;;;;24.90;20.13;;;16.30;99.90;;;;;;5041480;28;20056;-45
2023/04/21 12:07:35;;;;;;;22.88;18.00;;;16.00;99.90;;;;;;5041727;28;20068;-44
2023/04/21 12:10:02;;;;;;;27.02;18.83;;;15.70;99.90;;;;;;5041513;28;20041;-44
2023/04/21 12:12:28;;;;;;;23.08;18.63;;;15.60;99.90;;;;;;5041273;28;20079;-44
2023/04/21 12:14:56;;;;;;;22.77;19.13;;;15.60;99.90;;;;;;5041528;28;20025;-44
2023/04/21 12:17:24;;;;;;;20.83;17.80;;;15.70;99.90;;;;;;5041760;28;20448;-44
2023/04/21 12:19:50;;;;;;;21.58;18.15;;;15.90;99.90;;;;;;5040398;28;20037;-44
2023/04/21 12:22:17;;;;;;;26.05;20.90;;;16.00;99.90;;;;;;5041841;28;20067;-44
2023/04/21 12:24:44;;;;;;;23.40;19.30;;;16.10;99.90;;;;;;5041251;28;20035;-44
2023/04/21 12:27:10;;;;;;;21.00;18.65;;;16.10;99.90;;;;;;5038310;28;20090;-43
2023/04/21 12:29:37;;;;;;;21.35;17.60;;;16.20;99.90;;;;;;5042036;28;20028;-43
2023/04/21 12:32:06;;;;;;;21.35;16.83;;;16.10;99.90;;;;;;5042159;28;20104;-45